Time;durP1;ratioP1;P1;durP2;ratioP2;P2;SDS_P1;SDS_P2;PMS_P1;PMS_P2;Temp;Humidity;BMP_temperature;BMP_pressure;BME280_temperature;BME280_humidity;BME280_pressure;Samples;Min_cycle;Max_cycle;Signal;HPM_P1;HPM_P2
2022/05/04 00:00:39;;;;;;;12.43;6.55;;;;;;;18.09;51.56;101256.44;4953868;28;20492;-64
2022/05/04 00:03:06;;;;;;;7.90;6.47;;;;;;;18.04;51.53;101261.28;4953770;28;20054;-65
2022/05/04 00:05:33;;;;;;;9.65;6.32;;;;;;;18.06;51.53;101265.50;4953583;28;20047;-60
2022/05/04 00:07:59;;;;;;;8.77;6.82;;;;;;;18.05;51.39;101261.16;4953751;28;20070;-63
2022/05/04 00:10:26;;;;;;;9.20;6.75;;;;;;;18.06;51.54;101259.34;4952427;28;20047;-61
2022/05/04 00:12:52;;;;;;;9.23;6.78;;;;;;;18.02;51.35;101258.75;4953928;28;20059;-60
2022/05/04 00:15:19;;;;;;;8.73;6.68;;;;;;;18.01;51.66;101253.56;4953766;28;20047;-65
2022/05/04 00:17:46;;;;;;;11.30;7.93;;;;;;;18.00;51.37;101258.03;4953766;28;20048;-58
2022/05/04 00:20:12;;;;;;;13.57;7.53;;;;;;;17.99;51.50;101252.84;4953333;28;20069;-61
2022/05/04 00:22:39;;;;;;;9.45;6.82;;;;;;;17.93;51.90;101267.44;4953476;28;20059;-64
2022/05/04 00:25:06;;;;;;;8.50;6.80;;;;;;;17.91;51.59;101264.88;4953718;28;20455;-65
2022/05/04 00:27:34;;;;;;;11.68;7.90;;;;;;;17.89;51.71;101263.31;4952402;28;20114;-61
2022/05/04 00:30:01;;;;;;;7.97;6.60;;;;;;;17.87;52.15;101267.91;4953709;28;20578;-59
2022/05/04 00:32:27;;;;;;;11.70;7.47;;;;;;;17.83;51.96;101262.00;4953658;28;20043;-65
2022/05/04 00:34:54;;;;;;;11.38;7.75;;;;;;;17.79;51.95;101258.75;4953664;28;20058;-59
2022/05/04 00:37:21;;;;;;;7.95;6.90;;;;;;;17.77;52.02;101263.31;4955473;28;20055;-59
2022/05/04 00:39:47;;;;;;;10.32;7.20;;;;;;;17.77;52.31;101267.78;4943946;29;20047;-59
2022/05/04 00:42:18;;;;;;;11.32;7.90;;;;;;;17.74;52.56;101268.88;4957010;28;20051;-59
2022/05/04 00:44:47;;;;;;;11.23;8.00;;;;;;;17.71;52.50;101265.63;4956482;29;20532;-59
2022/05/04 00:47:14;;;;;;;12.10;8.20;;;;;;;17.68;52.36;101260.56;4957158;28;20111;-59
2022/05/04 00:49:42;;;;;;;16.60;9.10;;;;;;;17.69;52.67;101263.09;4956855;28;20039;-63
2022/05/04 00:52:14;;;;;;;10.52;8.63;;;;;;;17.66;52.54;101259.81;4956958;28;20050;-62
2022/05/04 00:54:46;;;;;;;12.27;8.77;;;;;;;17.61;52.66;101265.47;4956928;28;20051;-59
2022/05/04 01:00:18;;;;;;;12.80;8.60;;;;;;;17.49;53.02;101261.97;4941352;29;20078;-66
2022/05/04 01:03:00;;;;;;;9.35;8.00;;;;;;;17.46;52.93;101265.72;4956417;28;20424;-66
2022/05/04 01:05:32;;;;;;;11.00;8.10;;;;;;;17.42;53.56;101266.06;4950256;28;20043;-59
2022/05/04 01:07:59;;;;;;;12.45;8.60;;;;;;;17.41;53.79;101272.38;4970274;28;20062;-60
2022/05/04 01:10:25;;;;;;;11.02;8.52;;;;;;;17.44;53.64;101270.28;4956595;28;20062;-61
2022/05/04 01:12:53;;;;;;;11.95;8.45;;;;;;;17.46;53.49;101270.19;4956791;28;20055;-59
2022/05/04 01:15:22;;;;;;;10.27;9.00;;;;;;;17.46;53.47;101270.19;4956669;28;20043;-59
2022/05/04 01:17:49;;;;;;;13.50;9.77;;;;;;;17.45;53.16;101269.34;4956735;28;20099;-60
2022/05/04 01:20:17;;;;;;;13.57;10.38;;;;;;;17.45;53.23;101274.63;4955916;28;20098;-59
2022/05/04 01:22:44;;;;;;;16.20;10.23;;;;;;;17.41;53.57;101275.84;4958599;28;20055;-59
2022/05/04 01:25:12;;;;;;;17.08;10.27;;;;;;;17.34;53.75;101285.22;4970137;28;20054;-59
2022/05/04 01:27:38;;;;;;;13.43;10.00;;;;;;;17.29;54.12;101279.44;4957899;28;20051;-66
2022/05/04 01:30:06;;;;;;;12.50;10.35;;;;;;;17.25;54.20;101281.47;4956392;28;20052;-59
2022/05/04 01:32:32;;;;;;;13.20;11.48;;;;;;;17.21;54.07;101285.34;4954827;28;20051;-65
2022/05/04 01:34:59;;;;;;;12.73;10.95;;;;;;;17.18;54.29;101282.06;4956406;28;20121;-59
2022/05/04 01:37:26;;;;;;;14.63;11.75;;;;;;;17.20;54.24;101280.16;4956133;28;20043;-66
2022/05/04 01:39:52;;;;;;;16.05;12.30;;;;;;;17.12;54.24;101278.91;4956086;28;20136;-59
2022/05/04 01:42:23;;;;;;;14.73;11.88;;;;;;;17.12;54.25;101283.38;4955794;28;20047;-59
2022/05/04 01:44:51;;;;;;;14.48;11.95;;;;;;;17.10;54.51;101283.50;4956029;28;20094;-66
2022/05/04 01:47:17;;;;;;;14.77;12.13;;;;;;;17.07;54.74;101289.03;4955895;28;20094;-62
2022/05/04 01:49:44;;;;;;;15.30;12.00;;;;;;;17.04;54.89;101281.31;4954388;28;20047;-59
2022/05/04 01:52:11;;;;;;;17.52;12.02;;;;;;;17.00;54.80;101285.16;4955711;28;20066;-60
2022/05/04 01:54:37;;;;;;;16.30;12.18;;;;;;;16.97;55.04;101280.91;4955558;28;20055;-59
2022/05/04 01:57:04;;;;;;;13.55;11.02;;;;;;;16.93;54.84;101279.47;4955904;28;20149;-66
2022/05/04 01:59:31;;;;;;;16.15;11.82;;;;;;;16.93;55.33;101283.94;4955500;28;20051;-61
2022/05/04 02:01:59;;;;;;;16.08;11.70;;;;;;;16.89;55.14;101279.78;4955657;28;20055;-59
2022/05/04 02:04:26;;;;;;;14.98;11.25;;;;;;;16.86;55.31;101272.06;4955404;28;20047;-66
2022/05/04 02:06:53;;;;;;;13.07;11.50;;;;;;;16.84;55.58;101276.66;4954384;28;20044;-64
2022/05/04 02:09:20;;;;;;;17.20;12.55;;;;;;;16.85;55.18;101283.63;4955358;28;20047;-64
2022/05/04 02:11:46;;;;;;;14.98;11.45;;;;;;;16.79;55.41;101276.97;4955646;28;20051;-59
2022/05/04 02:14:13;;;;;;;13.02;11.38;;;;;;;16.74;55.79;101279.13;4955684;28;20043;-65
2022/05/04 02:16:40;;;;;;;14.23;11.90;;;;;;;16.75;55.71;101286.97;4955454;28;20492;-60
2022/05/04 02:19:07;;;;;;;15.38;12.00;;;;;;;16.68;55.74;101277.75;4955362;28;20039;-61
2022/05/04 02:21:33;;;;;;;13.20;11.88;;;;;;;16.63;56.17;101282.56;4954913;28;20055;-59
2022/05/04 02:24:00;;;;;;;17.23;12.43;;;;;;;16.63;56.06;101280.78;4954431;29;20094;-60
2022/05/04 02:26:26;;;;;;;16.38;11.77;;;;;;;16.61;55.85;101287.16;4955153;28;20404;-58
2022/05/04 02:28:53;;;;;;;13.65;11.30;;;;;;;16.59;55.94;101284.59;4955029;28;20039;-59
2022/05/04 02:31:20;;;;;;;12.30;10.43;;;;;;;16.55;55.83;101284.94;4955296;28;20039;-60
2022/05/04 02:33:47;;;;;;;14.68;11.20;;;;;;;16.53;55.65;101284.19;4955122;28;20412;-66
2022/05/04 02:39:00;;;;;;;14.02;11.55;;;;;;;16.53;55.64;101293.00;4953853;29;20099;-60
2022/05/04 02:41:26;;;;;;;14.55;12.57;;;;;;;16.54;55.61;101289.38;4954810;28;20043;-65
2022/05/04 02:43:53;;;;;;;14.68;12.30;;;;;;;16.53;55.81;101284.19;4955090;28;20063;-59
2022/05/04 02:46:22;;;;;;;16.20;13.23;;;;;;;16.54;55.91;101284.06;4954670;28;20047;-63
2022/05/04 02:48:50;;;;;;;18.40;13.73;;;;;;;16.54;55.72;101285.91;4954839;28;20067;-59
2022/05/04 02:51:16;;;;;;;17.67;13.13;;;;;;;16.51;56.36;101276.38;4951319;29;20039;-66
2022/05/04 02:53:43;;;;;;;14.05;12.32;;;;;;;16.50;56.15;101282.63;4954898;28;20055;-65
2022/05/04 02:56:10;;;;;;;13.70;12.27;;;;;;;16.48;56.18;101282.75;4953538;28;20500;-59
2022/05/04 02:58:37;;;;;;;15.93;12.93;;;;;;;16.52;56.33;101282.50;4954705;28;20058;-66
2022/05/04 03:04:08;;;;;;;17.10;13.50;;;;;;;16.52;56.25;101283.38;4950202;28;20055;-62
2022/05/04 03:06:36;;;;;;;16.73;12.73;;;;;;;16.51;56.29;101284.31;4947826;29;20197;-60
2022/05/04 03:09:03;;;;;;;19.48;12.10;;;;;;;16.52;56.46;101287.81;4951433;28;20053;-59
2022/05/04 03:14:17;;;;;;;17.80;13.07;;;;;;;16.49;56.74;101287.09;4951025;28;20050;-59
2022/05/04 03:16:45;;;;;;;19.38;13.55;;;;;;;16.45;56.85;101295.34;4951235;28;20054;-63
2022/05/04 03:19:11;;;;;;;19.75;14.25;;;;;;;16.42;56.84;101307.03;4951023;28;20047;-59
2022/05/04 03:21:38;;;;;;;16.48;14.10;;;;;;;16.41;56.71;101300.03;4950600;28;20063;-59
2022/05/04 03:24:05;;;;;;;16.02;14.07;;;;;;;16.40;57.31;101297.50;4951246;28;20054;-59
2022/05/04 03:26:32;;;;;;;15.70;14.00;;;;;;;16.41;57.32;101294.72;4951369;28;20051;-59
2022/05/04 03:28:58;;;;;;;18.30;14.10;;;;;;;16.47;57.12;101296.94;4950138;28;20055;-59
2022/05/04 03:31:25;;;;;;;16.85;13.95;;;;;;;16.50;57.32;101298.50;4951029;28;20055;-59
2022/05/04 03:33:52;;;;;;;20.63;14.68;;;;;;;16.53;57.07;101294.78;4950890;28;20061;-62
2022/05/04 03:36:18;;;;;;;18.50;14.68;;;;;;;16.52;57.43;101293.97;4950502;28;20043;-59
2022/05/04 03:38:45;;;;;;;21.05;14.65;;;;;;;16.53;57.08;101297.44;4950881;28;20048;-59
2022/05/04 03:41:12;;;;;;;23.88;15.05;;;;;;;16.51;57.40;101297.56;4950659;28;20117;-60
2022/05/04 03:43:39;;;;;;;24.67;15.13;;;;;;;16.49;57.44;101302.97;4950593;28;20051;-59
2022/05/04 03:46:11;;;;;;;22.85;14.77;;;;;;;16.44;57.72;101302.47;4949564;28;20047;-59
2022/05/04 03:48:38;;;;;;;23.08;15.63;;;;;;;16.44;57.77;101298.97;4950593;28;20514;-59
2022/05/04 03:51:05;;;;;;;19.48;14.35;;;;;;;16.49;57.65;101299.47;4950455;28;20408;-60
2022/05/04 03:53:31;;;;;;;19.85;15.65;;;;;;;16.47;57.57;101302.22;4950653;28;20559;-64
2022/05/04 03:55:58;;;;;;;18.10;14.48;;;;;;;16.46;57.67;101297.06;4950895;28;20059;-60
2022/05/04 03:58:25;;;;;;;19.17;15.30;;;;;;;16.45;58.11;101309.44;4950526;28;20070;-60
2022/05/04 04:00:51;;;;;;;25.58;15.30;;;;;;;16.42;58.16;101301.72;4950692;28;20043;-65
2022/05/04 04:03:18;;;;;;;23.52;16.20;;;;;;;16.41;58.13;101304.50;4949218;28;20050;-63
2022/05/04 04:05:45;;;;;;;23.00;17.15;;;;;;;16.44;58.22;101306.91;4950196;28;20510;-59
2022/05/04 04:08:12;;;;;;;21.77;16.73;;;;;;;16.43;58.08;101302.56;4950691;28;20055;-59
2022/05/04 04:10:38;;;;;;;22.15;17.05;;;;;;;16.43;58.54;101306.06;4950298;28;20043;-63
2022/05/04 04:13:08;;;;;;;18.77;15.95;;;;;;;16.42;58.55;101312.31;4953663;28;20629;-64
2022/05/04 04:15:35;;;;;;;21.15;15.70;;;;;;;16.39;58.71;101312.56;4954267;28;20051;-59
2022/05/04 04:18:02;;;;;;;18.85;16.00;;;;;;;16.40;58.24;101322.16;4953401;28;20059;-59
2022/05/04 04:23:13;;;;;;;23.48;16.98;;;;;;;16.38;58.62;101321.44;4954195;29;20047;-62
2022/05/04 04:25:40;;;;;;;21.00;17.30;;;;;;;16.40;58.45;101326.63;4953776;28;20055;-59
2022/05/04 04:28:07;;;;;;;20.92;17.23;;;;;;;16.39;58.94;101331.09;4953994;28;20444;-60
2022/05/04 04:30:34;;;;;;;20.20;16.80;;;;;;;16.38;58.78;101329.41;4954306;28;20055;-59
2022/05/04 04:33:00;;;;;;;21.13;16.70;;;;;;;16.39;58.89;101332.88;4954397;28;20051;-60
2022/05/04 04:35:27;;;;;;;24.63;16.73;;;;;;;16.39;59.38;101338.19;4953003;28;20047;-59
2022/05/04 04:37:54;;;;;;;22.27;16.33;;;;;;;16.47;58.92;101343.78;4953961;28;20047;-63
2022/05/04 04:40:21;;;;;;;20.95;17.73;;;;;;;16.47;59.20;101346.44;4953811;28;20102;-59
2022/05/04 04:42:47;;;;;;;21.33;17.58;;;;;;;16.47;59.42;101351.72;4953797;28;20066;-59
2022/05/04 04:45:14;;;;;;;22.85;17.05;;;;;;;16.50;59.40;101346.19;4953981;28;20043;-64
2022/05/04 04:47:40;;;;;;;20.00;16.48;;;;;;;16.51;59.51;101347.06;4953509;28;20494;-61
2022/05/04 04:50:08;;;;;;;23.55;17.13;;;;;;;16.55;59.32;101357.31;4953606;28;20571;-65
2022/05/04 04:52:34;;;;;;;24.35;18.35;;;;;;;16.58;59.60;101357.09;4952804;28;20055;-59
2022/05/04 04:55:01;;;;;;;21.40;17.75;;;;;;;16.61;59.49;101353.38;4953901;28;20094;-59
2022/05/04 04:57:27;;;;;;;22.55;17.88;;;;;;;16.67;59.22;101358.25;4942491;28;20048;-61
2022/05/04 04:59:54;;;;;;;6.20;4.93;;;;;;;17.10;58.98;101352.47;4951244;29;20094;-59
2022/05/04 05:02:21;;;;;;;6.05;5.13;;;;;;;17.46;58.39;101363.91;4953564;28;20098;-59
2022/05/04 05:04:48;;;;;;;24.08;16.98;;;;;;;17.57;57.90;101362.22;4953368;28;20515;-65
2022/05/04 05:07:14;;;;;;;24.65;18.08;;;;;;;17.24;58.47;101362.03;4952336;28;20506;-60
2022/05/04 05:09:41;;;;;;;22.88;18.02;;;;;;;17.11;58.96;101370.03;4953275;28;20055;-59
2022/05/04 05:12:08;;;;;;;20.60;17.58;;;;;;;17.02;59.17;101381.34;4959532;28;20496;-59
2022/05/04 05:17:20;;;;;;;27.77;18.20;;;;;;;17.03;59.27;101372.44;4953141;28;20047;-59
2022/05/04 05:19:53;;;;;;;23.77;18.20;;;;;;;17.04;58.98;101382.09;4953260;28;20043;-58
2022/05/04 05:22:28;;;;;;;20.50;18.30;;;;;;;17.04;59.00;101381.22;4948319;29;20040;-57
2022/05/04 05:25:00;;;;;;;27.17;18.92;;;;;;;17.04;58.99;101383.88;4948096;28;20151;-68
2022/05/04 05:27:31;;;;;;;22.50;17.83;;;;;;;17.11;58.97;101387.75;4948901;29;20504;-59
2022/05/04 05:29:58;;;;;;;21.65;18.05;;;;;;;17.14;59.11;101384.88;4953212;28;20098;-60
2022/05/04 05:32:24;;;;;;;22.58;19.48;;;;;;;17.16;59.22;101393.56;4952781;28;20043;-59
2022/05/04 05:34:51;;;;;;;22.00;18.90;;;;;;;17.22;58.90;101395.78;4952684;28;20058;-58
2022/05/04 05:37:20;;;;;;;23.92;18.60;;;;;;;17.26;59.05;101402.53;4952769;28;20512;-58
2022/05/04 05:39:47;;;;;;;23.00;17.55;;;;;;;17.30;59.31;101396.03;4952751;28;20047;-58
2022/05/04 05:42:15;;;;;;;22.75;18.65;;;;;;;17.31;59.46;101407.50;4951548;28;20183;-60
2022/05/04 05:44:41;;;;;;;24.65;19.10;;;;;;;17.30;59.31;101404.00;4952562;28;20047;-60
2022/05/04 05:47:08;;;;;;;24.08;19.50;;;;;;;17.29;59.65;101402.31;4952547;28;20043;-58
2022/05/04 05:49:35;;;;;;;27.58;19.65;;;;;;;17.34;59.48;101409.09;4952543;28;20142;-58
2022/05/04 05:52:01;;;;;;;25.95;19.83;;;;;;;17.39;59.65;101410.41;4952397;28;20114;-58
2022/05/04 05:54:31;;;;;;;59.28;11.63;;;;;;;17.68;59.29;101414.50;4952692;28;20628;-60
2022/05/04 05:56:57;;;;;;;32.45;8.40;;;;;;;18.03;59.21;101422.44;4952475;28;20047;-60
2022/05/04 05:59:24;;;;;;;35.30;9.27;;;;;;;18.27;59.03;101426.78;4951220;28;20074;-73
2022/05/04 06:01:50;;;;;;;29.60;18.45;;;;;;;18.39;59.13;101412.53;4952206;28;20042;-58
2022/05/04 06:04:17;;;;;;;25.73;19.40;;;;;;;18.13;59.08;101411.94;4952085;28;20099;-61
2022/05/04 06:06:44;;;;;;;22.13;18.85;;;;;;;18.03;59.21;101417.13;4952138;28;20047;-62
2022/05/04 06:09:10;;;;;;;29.67;20.48;;;;;;;17.85;59.31;101418.50;4952044;28;20119;-61
2022/05/04 06:11:37;;;;;;;22.42;18.30;;;;;;;17.84;59.23;101408.84;4953109;28;20114;-60
2022/05/04 06:14:04;;;;;;;23.98;19.55;;;;;;;17.77;59.37;101411.13;4952483;28;20047;-61
2022/05/04 06:16:30;;;;;;;25.90;19.83;;;;;;;17.75;59.46;101418.34;4951993;28;20171;-62
2022/05/04 06:18:57;;;;;;;23.10;18.92;;;;;;;17.74;58.98;101414.03;4951586;28;20039;-60
2022/05/04 06:21:24;;;;;;;24.58;18.73;;;;;;;17.76;59.18;101412.09;4941056;28;20114;-61
2022/05/04 06:23:50;;;;;;;20.25;17.63;;;;;;;17.88;58.61;101420.94;4940906;28;20141;-61
2022/05/04 06:26:20;;;;;;;22.15;18.08;;;;;;;17.92;58.25;101425.88;4950924;28;20043;-61
2022/05/04 06:28:47;;;;;;;21.85;18.73;;;;;;;17.92;57.86;101425.06;4941907;28;20436;-74
2022/05/04 06:34:08;;;;;;;21.42;18.00;;;;;;;18.21;57.12;101427.28;4951050;28;20077;-60
2022/05/04 06:36:34;;;;;;;22.60;17.67;;;;;;;18.13;57.39;101430.53;4962893;28;20558;-59
2022/05/04 06:39:02;;;;;;;22.30;17.15;;;;;;;18.08;56.72;101428.25;4952215;28;20043;-58
2022/05/04 06:41:28;;;;;;;20.75;17.92;;;;;;;18.05;56.79;101439.09;4951706;28;20051;-59
2022/05/04 06:43:55;;;;;;;21.33;16.98;;;;;;;18.07;56.58;101441.66;4951288;28;20043;-60
2022/05/04 06:46:22;;;;;;;20.08;17.17;;;;;;;18.08;56.40;101438.00;4951332;28;20384;-59
2022/05/04 06:48:49;;;;;;;20.75;17.25;;;;;;;18.11;56.13;101438.63;4950353;28;20109;-59
2022/05/04 06:51:15;;;;;;;23.30;17.35;;;;;;;18.16;56.07;101438.28;4950871;28;20047;-59
2022/05/04 06:53:42;;;;;;;22.00;18.90;;;;;;;18.11;56.37;101438.63;4951473;28;20044;-59
2022/05/04 06:56:29;;;;;;;21.25;18.67;;;;;;;18.13;56.19;101427.03;4951742;28;20043;-62
2022/05/04 06:58:56;;;;;;;20.52;18.33;;;;;;;18.17;55.82;101431.13;4951464;28;20102;-59
2022/05/04 07:01:22;;;;;;;25.50;17.75;;;;;;;18.26;55.89;101433.94;4951213;28;20047;-69
2022/05/04 07:03:49;;;;;;;20.60;16.98;;;;;;;18.27;55.77;101434.75;4950707;28;20407;-59
2022/05/04 07:06:16;;;;;;;18.80;16.65;;;;;;;18.33;55.45;101436.09;4950361;29;20043;-59
2022/05/04 07:08:43;;;;;;;23.02;16.88;;;;;;;18.39;55.54;101425.00;4951090;28;20063;-69
2022/05/04 07:11:10;;;;;;;20.40;16.65;;;;;;;18.62;54.35;101432.97;4951241;28;20057;-59
2022/05/04 07:13:36;;;;;;;21.63;17.90;;;;;;;18.75;54.03;101431.84;4951105;28;20079;-59
2022/05/04 07:16:03;;;;;;;18.75;16.52;;;;;;;18.85;53.66;101436.41;4951472;28;20044;-59
2022/05/04 07:18:30;;;;;;;20.05;16.73;;;;;;;18.89;53.46;101436.06;4950862;28;20055;-59
2022/05/04 07:20:57;;;;;;;22.33;17.65;;;;;;;18.88;53.97;101436.16;4949253;28;20055;-59
2022/05/04 07:23:23;;;;;;;20.02;15.95;;;;;;;18.92;53.82;101435.81;4950969;28;20057;-60
2022/05/04 07:25:50;;;;;;;20.02;15.55;;;;;;;19.03;53.10;101432.31;4950862;28;20484;-60
2022/05/04 07:28:16;;;;;;;20.30;16.38;;;;;;;19.25;52.61;101428.72;4951099;28;20039;-59
2022/05/04 07:30:43;;;;;;;19.40;16.25;;;;;;;19.50;51.96;101423.16;4950853;28;20464;-59
2022/05/04 07:33:10;;;;;;;17.75;13.20;;;;;;;19.74;51.63;101423.75;4950957;28;20039;-59
2022/05/04 07:35:36;;;;;;;14.55;12.35;;;;;;;19.92;50.41;101417.84;4950667;28;20102;-67
2022/05/04 07:38:03;;;;;;;15.93;12.50;;;;;;;20.09;49.85;101419.06;4949807;28;20055;-58
2022/05/04 07:43:15;;;;;;;15.07;13.30;;;;;;;20.30;48.99;101407.50;4937806;29;20066;-59
2022/05/04 07:45:42;;;;;;;17.52;13.93;;;;;;;20.39;48.69;101404.91;4950417;28;20110;-61
2022/05/04 07:48:09;;;;;;;15.82;12.63;;;;;;;20.48;48.69;101411.25;4950307;28;20407;-59
2022/05/04 07:50:36;;;;;;;14.00;12.38;;;;;;;20.53;48.40;101414.34;4950257;28;20047;-60
2022/05/04 07:53:02;;;;;;;16.05;12.85;;;;;;;20.64;48.10;101412.53;4950379;28;20106;-59
2022/05/04 07:55:30;;;;;;;17.05;12.45;;;;;;;20.66;48.18;101407.94;4949682;28;20523;-59
2022/05/04 07:57:57;;;;;;;16.23;13.10;;;;;;;20.76;47.70;101416.81;4950661;28;20048;-70
2022/05/04 08:05:55;;;;;;;14.80;12.75;;;;;;;21.00;46.87;101415.56;4950515;29;19934;-59
2022/05/04 08:08:22;;;;;;;19.08;13.70;;;;;;;20.98;46.96;101423.72;4950330;28;20531;-59
2022/05/04 08:10:48;;;;;;;20.90;14.07;;;;;;;21.01;47.07;101419.94;4949292;28;20048;-58
2022/05/04 08:13:18;;;;;;;16.60;13.02;;;;;;;20.98;47.26;101417.56;4950630;28;20066;-59
2022/05/04 08:15:46;;;;;;;14.10;12.45;;;;;;;21.02;47.12;101416.28;4950455;28;20047;-59
2022/05/04 08:18:13;;;;;;;20.98;12.90;;;;;;;21.17;46.24;101419.41;4950400;28;20055;-62
2022/05/04 08:20:40;;;;;;;15.57;12.50;;;;;;;21.19;46.16;101426.28;4950206;28;20083;-61
2022/05/04 08:23:07;;;;;;;16.77;11.90;;;;;;;21.33;45.74;101421.47;4950272;28;20555;-60
2022/05/04 08:25:34;;;;;;;15.32;13.05;;;;;;;21.44;45.77;101424.00;4950279;28;20401;-59
2022/05/04 08:28:00;;;;;;;14.70;12.68;;;;;;;21.39;45.60;101431.59;4949649;28;20396;-59
2022/05/04 08:30:27;;;;;;;16.13;13.30;;;;;;;21.32;45.57;101430.50;4950232;28;20051;-60
2022/05/04 08:32:54;;;;;;;18.33;12.15;;;;;;;21.45;45.14;101433.72;4950059;28;20047;-59
2022/05/04 08:35:20;;;;;;;13.73;11.98;;;;;;;21.50;45.19;101435.97;4950413;28;20051;-59
2022/05/04 08:37:48;;;;;;;15.93;11.80;;;;;;;21.63;44.96;101427.69;4950445;28;20047;-59
2022/05/04 08:40:15;;;;;;;16.58;12.15;;;;;;;21.79;44.66;101429.78;4950469;28;20047;-59
2022/05/04 08:42:44;;;;;;;13.73;12.25;;;;;;;21.82;44.44;101427.63;4949320;28;20047;-60
2022/05/04 08:45:12;;;;;;;14.40;12.27;;;;;;;21.83;44.33;101429.34;4950382;28;20055;-60
2022/05/04 08:47:41;;;;;;;16.38;12.95;;;;;;;21.84;44.11;101425.69;4950008;28;20053;-70
2022/05/04 08:50:12;;;;;;;17.88;11.88;;;;;;;21.83;44.38;101431.16;4950141;28;20043;-60
2022/05/04 08:52:42;;;;;;;15.82;13.38;;;;;;;21.83;43.91;101431.16;4949825;28;20055;-60
2022/05/04 08:55:10;;;;;;;16.27;13.15;;;;;;;21.84;43.94;101430.19;4949765;28;20051;-62
2022/05/04 08:57:39;;;;;;;17.05;13.65;;;;;;;21.84;44.08;101428.34;4949863;28;20051;-59
2022/05/04 09:00:09;;;;;;;16.25;13.57;;;;;;;21.84;44.26;101427.53;4951556;28;20049;-59
2022/05/04 09:02:38;;;;;;;14.18;12.68;;;;;;;21.91;44.20;101436.63;4953185;28;20110;-59
2022/05/04 09:05:19;;;;;;;13.05;11.60;;;;;;;22.04;43.73;101428.28;4953193;28;20047;-67
2022/05/04 09:07:50;;;;;;;15.77;11.52;;;;;;;22.24;43.30;101436.25;4953651;28;20102;-59
2022/05/04 09:10:20;;;;;;;15.75;12.05;;;;;;;22.49;42.66;101427.56;4953266;28;20047;-63
2022/05/04 09:12:48;;;;;;;14.73;13.00;;;;;;;22.68;42.23;101439.19;4953746;28;20498;-59
2022/05/04 09:15:22;;;;;;;16.63;12.70;;;;;;;22.83;42.10;101432.31;4953262;28;20055;-60
2022/05/04 09:18:10;;;;;;;13.35;11.88;;;;;;;23.01;41.66;101434.19;4951286;29;20140;-59
2022/05/04 09:20:45;;;;;;;14.55;12.65;;;;;;;23.00;41.60;101435.16;4952870;28;20059;-60
2022/05/04 09:23:20;;;;;;;28.83;14.23;;;;;;;23.07;41.53;101432.72;4952966;28;20134;-59
2022/05/04 09:25:52;;;;;;;17.45;13.85;;;;;;;23.17;41.09;101425.47;4953048;28;20051;-59
2022/05/04 09:28:20;;;;;;;16.17;11.55;;;;;;;23.27;40.77;101423.59;4952891;28;20125;-58
2022/05/04 09:30:58;;;;;;;15.07;11.77;;;;;;;23.49;40.53;101418.75;4952800;28;20051;-66
2022/05/04 09:33:27;;;;;;;14.00;10.82;;;;;;;23.57;40.33;101420.63;4951922;28;20062;-58
2022/05/04 09:35:56;;;;;;;17.92;10.48;;;;;;;23.67;39.92;101418.69;4952835;28;20058;-59
2022/05/04 09:46:47;;;;;;;16.05;9.48;;;;;;;23.77;38.63;101407.88;4952462;28;20043;-59
2022/05/04 09:49:22;;;;;;;13.95;8.68;;;;;;;23.75;38.63;101409.88;4952505;28;20051;-59
2022/05/04 09:51:52;;;;;;;14.80;11.50;;;;;;;23.74;38.38;101402.81;4942470;28;20047;-60
2022/05/04 09:54:19;;;;;;;12.02;9.88;;;;;;;23.72;38.26;101404.81;4952320;28;20043;-59
2022/05/04 09:56:48;;;;;;;14.90;10.30;;;;;;;23.62;38.07;101403.06;4947980;28;20055;-60
2022/05/04 09:59:16;;;;;;;13.35;9.20;;;;;;;23.62;37.76;101402.25;4951909;28;20047;-60
2022/05/04 10:01:44;;;;;;;17.20;9.45;;;;;;;23.69;37.59;101400.59;4947786;28;20560;-59
2022/05/04 10:04:11;;;;;;;17.52;9.20;;;;;;;23.64;37.87;101390.38;4935645;29;20177;-60
2022/05/04 10:06:39;;;;;;;10.73;9.63;;;;;;;23.75;37.86;101391.09;4947128;29;20066;-59
2022/05/04 10:09:07;;;;;;;11.85;8.98;;;;;;;23.96;37.32;101388.09;4944703;28;20043;-60
2022/05/04 10:11:34;;;;;;;11.20;9.30;;;;;;;24.08;37.50;101389.47;4946619;29;20048;-72
2022/05/04 10:14:10;;;;;;;10.35;8.48;;;;;;;23.99;36.73;101390.44;4957845;28;20070;-60
2022/05/04 10:16:41;;;;;;;;;;;;;;;24.04;36.63;101384.59;4952690;28;20140;-61
2022/05/04 10:19:15;;;;;;;11.63;7.40;;;;;;;24.22;36.21;101379.16;4951729;28;19922;-63
2022/05/04 10:21:45;;;;;;;12.63;8.20;;;;;;;24.38;36.02;101381.91;4951719;28;20059;-62
2022/05/04 10:24:13;;;;;;;10.30;8.35;;;;;;;24.51;35.42;101369.88;4950716;28;20046;-60
2022/05/04 10:26:39;;;;;;;10.43;8.52;;;;;;;24.61;35.04;101373.25;4951838;28;20047;-72
2022/05/04 10:32:51;;;;;;;15.02;9.30;;;;;;;24.76;34.70;101371.63;4946274;29;20051;-59
2022/05/04 10:35:26;;;;;;;9.57;7.25;;;;;;;24.85;34.54;101375.16;4916966;29;20100;-60
2022/05/04 10:37:57;;;;;;;9.18;7.90;;;;;;;24.75;34.37;101361.88;4947572;28;20523;-59
2022/05/04 10:40:35;;;;;;;10.00;7.20;;;;;;;24.78;34.00;101369.63;4949935;28;20118;-60
2022/05/04 10:43:11;;;;;;;8.18;7.18;;;;;;;24.83;33.71;101365.59;4951142;28;20043;-63
2022/05/04 10:45:42;;;;;;;9.52;6.68;;;;;;;24.72;33.74;101364.91;4948722;29;20130;-60
2022/05/04 10:48:18;;;;;;;9.73;5.95;;;;;;;24.60;33.67;101364.34;4951304;28;20043;-59
2022/05/04 10:50:57;;;;;;;9.32;6.30;;;;;;;24.59;33.70;101364.50;4951364;28;20055;-63
2022/05/04 10:53:24;;;;;;;8.98;5.47;;;;;;;24.84;33.22;101357.38;4948962;28;20043;-59
2022/05/04 10:56:15;;;;;;;8.25;6.68;;;;;;;24.89;32.48;101357.72;4943028;29;20055;-59
2022/05/04 10:58:52;;;;;;;7.03;6.32;;;;;;;24.90;32.71;101356.72;4951241;28;20054;-59
2022/05/04 11:01:30;;;;;;;7.75;5.88;;;;;;;24.96;32.68;101355.19;4951215;28;20055;-59
2022/05/04 11:04:10;;;;;;;8.68;6.45;;;;;;;25.05;32.54;101353.34;4940627;29;20535;-58
2022/05/04 11:06:49;;;;;;;9.57;7.15;;;;;;;25.14;32.73;101355.03;4951121;28;20087;-60
2022/05/04 11:09:17;;;;;;;9.00;7.32;;;;;;;25.20;32.51;101356.22;4941056;29;20051;-59
2022/05/04 11:11:47;;;;;;;8.18;6.40;;;;;;;25.17;32.45;101353.88;4951356;28;20400;-59
2022/05/04 11:14:16;;;;;;;9.48;6.28;;;;;;;25.24;32.32;101358.41;4951126;28;20050;-60
2022/05/04 11:16:44;;;;;;;16.23;7.32;;;;;;;25.27;32.25;101349.16;4952414;28;20481;-63
2022/05/04 11:19:12;;;;;;;10.40;6.78;;;;;;;25.16;32.53;101338.75;4948108;28;20050;-61
2022/05/04 11:21:39;;;;;;;7.40;6.25;;;;;;;25.19;32.57;101338.41;4957243;28;20095;-61
2022/05/04 11:24:08;;;;;;;8.50;6.40;;;;;;;25.20;32.03;101334.72;4935684;28;20058;-61
2022/05/04 11:26:38;;;;;;;9.27;6.40;;;;;;;25.11;31.88;101344.63;4945950;28;20055;-61
2022/05/04 11:29:14;;;;;;;6.00;4.65;;;;;;;25.33;31.30;101335.06;4945098;29;20052;-64
2022/05/04 11:31:46;;;;;;;6.28;5.55;;;;;;;25.43;30.92;101334.88;4944705;28;20055;-72
2022/05/04 11:34:15;;;;;;;5.75;4.95;;;;;;;25.47;30.59;101325.50;4937130;29;20044;-68
2022/05/04 11:36:46;;;;;;;6.95;5.00;;;;;;;25.44;30.27;101336.56;4943958;29;20081;-67
2022/05/04 11:39:24;;;;;;;6.85;6.10;;;;;;;25.49;30.35;101338.75;4937095;29;20051;-62
2022/05/04 11:41:52;;;;;;;6.15;5.10;;;;;;;25.51;30.09;101332.19;4943609;29;20050;-60
2022/05/04 11:44:21;;;;;;;6.75;5.38;;;;;;;25.58;29.98;101324.28;4950413;28;20416;-61
2022/05/04 11:46:49;;;;;;;6.28;5.00;;;;;;;25.68;30.17;101324.91;4949264;28;20075;-60
2022/05/04 11:49:19;;;;;;;5.70;3.78;;;;;;;25.74;30.18;101328.78;4944837;29;20043;-61
2022/05/04 11:51:46;;;;;;;10.80;3.53;;;;;;;25.74;29.81;101326.91;4943764;28;20054;-60
2022/05/04 11:54:13;;;;;;;4.25;2.67;;;;;;;25.72;29.12;101320.84;4949531;28;20054;-61
2022/05/04 11:56:40;;;;;;;3.00;2.30;;;;;;;25.73;28.28;101319.03;4949310;28;20055;-61
2022/05/04 11:59:10;;;;;;;4.07;3.00;;;;;;;25.77;27.92;101312.28;4948117;28;20043;-66